createdAt,value
2019-04-26T00:00:32.569Z,58.19
2019-04-26T00:01:32.542Z,58.19
2019-04-26T00:02:32.519Z,58.19
2019-04-26T00:03:32.506Z,58.29
2019-04-26T00:04:32.478Z,58.86
2019-04-26T00:05:35.522Z,58.48
2019-04-26T00:06:32.437Z,58.29
2019-04-26T00:07:32.414Z,58.48
2019-04-26T00:08:32.390Z,57.71
2019-04-26T00:09:32.379Z,57.71
2019-04-26T00:10:32.351Z,57.62
2019-04-26T00:11:32.331Z,57.90
2019-04-26T00:12:32.310Z,57.71
2019-04-26T00:13:32.293Z,57.62
2019-04-26T00:14:32.271Z,57.62
2019-04-26T00:15:32.249Z,57.81
2019-04-26T00:16:32.230Z,57.90
2019-04-26T00:17:32.209Z,57.81
2019-04-26T00:18:32.186Z,57.90
2019-04-26T00:19:32.161Z,58.10
2019-04-26T00:20:32.156Z,58.38
2019-04-26T00:21:32.123Z,58.19
2019-04-26T00:22:32.102Z,58.19
2019-04-26T00:23:32.079Z,58.19
2019-04-26T00:24:32.058Z,57.81
2019-04-26T00:25:32.035Z,57.81
2019-04-26T00:26:32.028Z,57.71
2019-04-26T00:27:31.991Z,57.71
2019-04-26T00:28:31.972Z,58.00
2019-04-26T00:29:31.953Z,57.71
2019-04-26T00:30:31.937Z,58.29
2019-04-26T00:31:31.905Z,58.29
2019-04-26T00:32:31.898Z,58.45
2019-04-26T00:33:31.866Z,59.02
2019-04-26T00:34:31.843Z,58.54
2019-04-26T00:35:31.822Z,59.02
2019-04-26T00:36:31.796Z,59.31
2019-04-26T00:37:31.777Z,59.78
2019-04-26T00:38:31.757Z,59.50
2019-04-26T00:39:31.739Z,59.69
2019-04-26T00:40:31.711Z,60.17
2019-04-26T00:41:31.688Z,59.41
2019-04-26T00:42:31.669Z,59.69
2019-04-26T00:43:31.653Z,59.50
2019-04-26T00:44:31.633Z,59.88
2019-04-26T00:45:31.606Z,59.66
2019-04-26T00:46:31.581Z,59.47
2019-04-26T00:47:31.565Z,60.14
2019-04-26T00:48:31.537Z,60.14
2019-04-26T00:49:42.939Z,60.90
2019-04-26T00:50:31.506Z,60.81
2019-04-26T00:51:31.473Z,60.61
2019-04-26T00:52:31.501Z,60.52
2019-04-26T00:53:31.429Z,61.00
2019-04-26T00:54:31.393Z,60.81
2019-04-26T00:55:40.099Z,60.81
2019-04-26T00:57:27.487Z,61.66
2019-04-26T00:58:27.280Z,62.52
2019-04-26T00:59:27.229Z,62.52
2019-04-26T01:00:27.725Z,61.95
2019-04-26T01:01:27.172Z,62.05
2019-04-26T01:02:27.166Z,61.57
2019-04-26T01:03:27.150Z,61.95
2019-04-26T01:04:27.114Z,62.05
2019-04-26T01:05:27.126Z,62.05
2019-04-26T01:06:27.082Z,62.05
2019-04-26T01:07:27.037Z,61.95
2019-04-26T01:08:27.018Z,61.95
2019-04-26T01:09:26.991Z,61.66
2019-04-26T01:10:26.987Z,61.47
2019-04-26T01:11:26.958Z,61.57
2019-04-26T01:12:26.955Z,61.76
2019-04-26T01:13:26.908Z,62.11
2019-04-26T01:14:26.885Z,62.11
2019-04-26T01:15:26.872Z,62.11
2019-04-26T01:16:26.841Z,62.30
2019-04-26T01:17:26.872Z,62.88
2019-04-26T01:18:26.809Z,63.07
2019-04-26T01:19:26.808Z,62.78
2019-04-26T01:20:26.812Z,62.59
2019-04-26T01:21:26.934Z,63.07
2019-04-26T01:22:27.623Z,63.26
2019-04-26T01:23:27.288Z,62.78
2019-04-26T01:24:27.295Z,62.88
2019-04-26T01:25:27.421Z,62.88
2019-04-26T01:26:27.412Z,62.68
2019-04-26T01:27:27.652Z,62.97
2019-04-26T01:28:26.592Z,63.64
2019-04-26T01:29:26.559Z,63.54
2019-04-26T01:30:26.568Z,63.73
2019-04-26T01:31:26.542Z,64.12
2019-04-26T01:32:26.496Z,63.64
2019-04-26T01:33:26.466Z,64.02
2019-04-26T01:36:12.901Z,64.78
2019-04-26T01:37:05.528Z,64.12
2019-04-26T01:39:09.465Z,64.69
2019-04-26T01:40:09.397Z,64.31
2019-04-26T01:42:05.359Z,64.56
2019-04-26T01:43:05.328Z,65.04
2019-04-26T01:45:15.683Z,65.04
2019-04-26T01:46:15.205Z,65.33
2019-04-26T01:48:09.569Z,65.33
2019-04-26T01:49:09.545Z,65.80
2019-04-26T01:50:09.519Z,65.89
2019-04-26T01:51:09.495Z,65.89
2019-04-26T01:52:09.486Z,65.42
2019-04-26T01:53:09.455Z,65.52
2019-04-26T01:54:09.432Z,65.89
2019-04-26T01:55:09.409Z,65.42
2019-04-26T01:56:09.389Z,66.28
2019-04-26T01:57:09.360Z,66.09
2019-04-26T01:58:09.344Z,66.56
2019-04-26T01:59:09.328Z,66.56
2019-04-26T02:00:09.296Z,66.56
2019-04-26T02:01:09.277Z,66.47
2019-04-26T02:02:09.251Z,66.56
2019-04-26T02:03:09.231Z,66.02
2019-04-26T02:04:09.211Z,65.83
2019-04-26T02:05:09.205Z,66.12
2019-04-26T02:06:09.162Z,65.83
2019-04-26T02:07:09.142Z,65.83
2019-04-26T02:08:09.122Z,66.12
2019-04-26T02:09:09.098Z,66.12
2019-04-26T02:10:09.107Z,65.93
2019-04-26T02:11:09.066Z,65.26
2019-04-26T02:12:09.075Z,65.52
2019-04-26T02:13:09.020Z,65.52
2019-04-26T02:14:08.999Z,66.09
2019-04-26T02:15:08.971Z,65.99
2019-04-26T02:16:08.950Z,66.18
2019-04-26T02:17:08.927Z,66.28
2019-04-26T02:18:08.901Z,65.99
2019-04-26T02:19:08.885Z,66.02
2019-04-26T02:20:08.859Z,65.83
2019-04-26T02:21:08.840Z,66.12
2019-04-26T02:22:08.812Z,65.64
2019-04-26T02:23:08.795Z,65.74
2019-04-26T02:24:08.772Z,65.36
2019-04-26T02:25:08.747Z,65.07
2019-04-26T02:26:08.724Z,65.07
2019-04-26T02:27:08.705Z,65.26
2019-04-26T02:28:08.677Z,65.26
2019-04-26T02:29:08.659Z,65.36
2019-04-26T02:30:08.644Z,65.74
2019-04-26T02:31:08.613Z,65.36
2019-04-26T02:32:08.596Z,65.45
2019-04-26T02:33:08.569Z,65.36
2019-04-26T02:34:08.548Z,65.93
2019-04-26T02:35:08.531Z,66.12
2019-04-26T02:36:08.500Z,65.93
2019-04-26T02:37:08.482Z,65.83
2019-04-26T02:38:08.454Z,65.70
2019-04-26T02:39:08.434Z,66.18
2019-04-26T02:40:08.410Z,65.70
2019-04-26T02:41:08.392Z,66.38
2019-04-26T02:42:08.370Z,66.47
2019-04-26T02:43:08.345Z,66.38
2019-04-26T02:44:08.325Z,66.85
2019-04-26T02:45:08.309Z,66.94
2019-04-26T02:46:08.282Z,67.04
2019-04-26T02:47:08.269Z,67.04
2019-04-26T02:48:08.232Z,67.14
2019-04-26T02:49:08.212Z,66.94
2019-04-26T02:50:08.191Z,67.48
2019-04-26T02:51:08.165Z,67.96
2019-04-26T02:52:08.142Z,67.77
2019-04-26T02:53:08.125Z,67.96
2019-04-26T02:54:08.097Z,68.24
2019-04-26T02:55:08.076Z,69.01
2019-04-26T02:56:08.063Z,69.20
2019-04-26T02:57:08.036Z,68.88
2019-04-26T02:58:08.007Z,70.02
2019-04-26T02:59:07.987Z,69.93
2019-04-26T03:00:07.961Z,70.59
2019-04-26T03:01:07.956Z,71.26
2019-04-26T03:02:07.920Z,71.45
2019-04-26T03:03:07.905Z,71.61
2019-04-26T03:04:07.875Z,71.70
2019-04-26T03:05:07.849Z,72.17
2019-04-26T03:06:07.834Z,72.17
2019-04-26T03:07:07.805Z,72.56
2019-04-26T03:08:07.789Z,72.75
2019-04-26T03:09:07.760Z,72.85
2019-04-26T03:10:07.740Z,72.56
2019-04-26T03:11:07.723Z,73.22
2019-04-26T03:12:07.691Z,73.32
2019-04-26T03:13:07.674Z,73.99
2019-04-26T03:14:07.647Z,74.18
2019-04-26T03:15:13.893Z,73.80
2019-04-26T03:16:07.603Z,73.99
2019-04-26T03:17:07.590Z,73.61
2019-04-26T03:18:07.556Z,73.61
2019-04-26T03:19:07.535Z,72.69
2019-04-26T03:20:07.535Z,72.97
2019-04-26T03:21:07.500Z,72.21
2019-04-26T03:22:07.474Z,72.12
2019-04-26T03:23:07.441Z,72.31
2019-04-26T03:24:07.425Z,72.12
2019-04-26T03:25:07.395Z,72.21
2019-04-26T03:26:07.376Z,72.31
2019-04-26T03:27:07.351Z,72.60
2019-04-26T03:28:07.325Z,72.94
2019-04-26T03:29:07.304Z,72.94
2019-04-26T03:30:19.906Z,72.94
2019-04-26T03:31:07.263Z,72.65
2019-04-26T03:32:07.264Z,73.51
2019-04-26T03:33:07.311Z,73.80
2019-04-26T03:34:07.526Z,74.84
2019-04-26T03:35:07.169Z,75.13
2019-04-26T03:36:07.171Z,75.13
2019-04-26T03:37:20.408Z,75.19
2019-04-26T03:38:07.099Z,75.09
2019-04-26T03:39:07.066Z,75.13
2019-04-26T03:40:07.042Z,75.13
2019-04-26T03:41:07.032Z,75.42
2019-04-26T03:42:14.187Z,75.42
2019-04-26T03:44:00.360Z,75.42
2019-04-26T03:44:59.857Z,74.84
2019-04-26T03:46:52.750Z,75.42
2019-04-26T03:47:52.727Z,75.85
2019-04-26T03:48:52.684Z,75.79
2019-04-26T03:49:54.581Z,75.89
2019-04-26T03:50:52.633Z,75.67
2019-04-26T03:51:52.616Z,75.79
2019-04-26T03:52:52.594Z,76.18
2019-04-26T03:53:52.569Z,75.57
2019-04-26T03:54:52.546Z,76.08
2019-04-26T03:55:52.525Z,75.67
2019-04-26T03:56:52.510Z,75.95
2019-04-26T03:57:52.475Z,76.23
2019-04-26T03:58:52.452Z,76.81
2019-04-26T03:59:52.428Z,76.90
2019-04-26T04:00:52.413Z,76.71
2019-04-26T04:01:52.387Z,76.52
2019-04-26T04:02:52.363Z,77.37
2019-04-26T04:03:52.337Z,77.28
2019-04-26T04:04:52.307Z,77.00
2019-04-26T04:05:52.293Z,77.19
2019-04-26T04:07:03.059Z,77.47
2019-04-26T04:07:52.247Z,77.47
2019-04-26T04:08:52.220Z,77.28
2019-04-26T04:09:52.211Z,77.00
2019-04-26T04:10:52.171Z,76.84
2019-04-26T04:12:09.689Z,77.03
2019-04-26T04:12:52.131Z,76.75
2019-04-26T04:13:52.277Z,76.75
2019-04-26T04:14:52.093Z,76.56
2019-04-26T04:15:52.055Z,76.84
2019-04-26T04:16:52.145Z,76.46
2019-04-26T04:17:52.012Z,75.70
2019-04-26T04:18:53.994Z,75.79
2019-04-26T04:19:51.966Z,75.70
2019-04-26T04:20:51.942Z,75.70
2019-04-26T04:21:51.924Z,76.08
2019-04-26T04:22:51.894Z,75.70
2019-04-26T04:23:51.874Z,75.99
2019-04-26T04:24:51.856Z,75.23
2019-04-26T04:25:51.830Z,75.70
2019-04-26T04:26:51.803Z,74.94
2019-04-26T04:27:51.780Z,74.94
2019-04-26T04:28:51.758Z,74.65
2019-04-26T04:29:55.273Z,74.56
2019-04-26T04:30:51.709Z,74.56
2019-04-26T04:31:51.686Z,74.46
2019-04-26T04:32:52.149Z,74.37
2019-04-26T04:33:52.663Z,74.37
2019-04-26T04:34:52.791Z,74.75
2019-04-26T04:35:52.844Z,74.65
2019-04-26T04:36:53.511Z,74.56
2019-04-26T04:38:05.867Z,74.56
2019-04-26T04:38:51.521Z,74.37
2019-04-26T04:39:53.293Z,74.46
2019-04-26T04:40:51.487Z,74.56
2019-04-26T04:41:51.458Z,74.46
2019-04-26T04:42:52.437Z,73.89
2019-04-26T04:43:53.052Z,74.12
2019-04-26T04:44:52.005Z,74.12
2019-04-26T04:45:52.780Z,74.12
2019-04-26T04:46:52.434Z,74.21
2019-04-26T04:47:52.652Z,73.93
2019-04-26T04:48:52.635Z,73.93
2019-04-26T04:49:52.608Z,73.45
2019-04-26T04:50:52.569Z,73.65
2019-04-26T04:51:51.618Z,72.88
2019-04-26T04:52:52.156Z,72.69
2019-04-26T04:53:51.680Z,72.31
2019-04-26T04:55:06.450Z,72.02
2019-04-26T04:55:52.076Z,72.60
2019-04-26T04:56:51.933Z,72.72
2019-04-26T04:57:52.275Z,72.25
2019-04-26T04:58:52.337Z,72.16
2019-04-26T04:59:51.038Z,72.16
2019-04-26T05:00:51.394Z,71.58
2019-04-26T05:01:50.994Z,71.68
2019-04-26T05:02:50.992Z,71.20
2019-04-26T05:03:51.072Z,71.30
2019-04-26T05:04:51.183Z,71.11
2019-04-26T05:05:51.116Z,70.63
2019-04-26T05:06:51.206Z,71.11
2019-04-26T05:07:51.480Z,71.30
2019-04-26T05:08:51.522Z,71.30
2019-04-26T05:09:51.609Z,70.92
2019-04-26T05:10:51.915Z,71.01
2019-04-26T05:11:51.878Z,71.30
2019-04-26T05:12:50.758Z,71.58
2019-04-26T05:13:50.728Z,71.96
2019-04-26T05:14:50.701Z,72.16
2019-04-26T05:15:50.724Z,71.83
2019-04-26T05:16:50.680Z,72.69
2019-04-26T05:17:51.541Z,72.88
2019-04-26T05:18:50.626Z,73.26
2019-04-26T05:19:50.682Z,74.21
2019-04-26T05:20:51.272Z,74.69
2019-04-26T05:21:50.920Z,75.07
2019-04-26T05:22:51.198Z,74.98
2019-04-26T05:23:51.071Z,74.98
2019-04-26T05:24:51.241Z,74.60
2019-04-26T05:25:51.379Z,74.40
2019-04-26T05:26:51.461Z,74.60
2019-04-26T05:27:50.894Z,74.69
2019-04-26T05:28:50.388Z,74.60
2019-04-26T05:29:50.382Z,75.16
2019-04-26T05:30:50.343Z,74.98
2019-04-26T05:31:51.528Z,75.26
2019-04-26T05:32:50.641Z,74.98
2019-04-26T05:33:50.393Z,75.16
2019-04-26T05:34:50.710Z,75.07
2019-04-26T05:35:51.104Z,74.21
2019-04-26T05:36:50.572Z,74.73
2019-04-26T05:37:51.034Z,73.96
2019-04-26T05:38:51.151Z,74.25
2019-04-26T05:39:51.151Z,73.77
2019-04-26T05:40:51.436Z,73.58
2019-04-26T05:41:50.095Z,72.92
2019-04-26T05:42:50.079Z,71.87
2019-04-26T05:43:50.246Z,72.09
2019-04-26T05:44:50.034Z,71.14
2019-04-26T05:45:50.490Z,70.42
2019-04-26T05:46:50.700Z,68.82
2019-04-26T05:48:03.268Z,67.77
2019-04-26T05:48:50.812Z,67.33
2019-04-26T05:49:50.367Z,65.45
2019-04-26T05:50:50.884Z,64.15
2019-04-26T05:51:50.996Z,62.71
2019-04-26T05:52:51.342Z,61.79
2019-04-26T05:53:51.025Z,60.10
2019-04-26T05:54:50.894Z,58.59
2019-04-26T05:55:51.120Z,58.40
2019-04-26T05:56:49.934Z,58.47
2019-04-26T05:57:51.028Z,58.63
2019-04-26T05:58:51.149Z,59.78
2019-04-26T05:59:50.404Z,59.97
2019-04-26T06:00:51.802Z,60.06
2019-04-26T06:01:50.518Z,59.78
2019-04-26T06:02:50.016Z,60.45
2019-04-26T06:03:50.753Z,60.83
2019-04-26T06:04:49.625Z,60.26
2019-04-26T06:05:49.765Z,61.12
2019-04-26T06:06:49.592Z,60.35
2019-04-26T06:07:50.831Z,61.02
2019-04-26T06:08:49.545Z,60.61
2019-04-26T06:09:50.151Z,61.76
2019-04-26T06:10:49.532Z,62.11
2019-04-26T06:11:50.252Z,62.59
2019-04-26T06:12:51.040Z,63.80
2019-04-26T06:13:49.449Z,65.14
2019-04-26T06:14:50.481Z,65.23
2019-04-26T06:15:51.412Z,66.28
2019-04-26T06:16:49.393Z,65.80
2019-04-26T06:17:49.375Z,65.80
2019-04-26T06:18:49.358Z,65.71
2019-04-26T06:19:49.334Z,65.61
2019-04-26T06:20:49.318Z,65.42
2019-04-26T06:21:49.298Z,65.71
2019-04-26T06:22:51.999Z,66.44
2019-04-26T06:23:49.257Z,66.72
2019-04-26T06:24:49.236Z,66.53
2019-04-26T06:25:49.224Z,65.67
2019-04-26T06:26:49.198Z,66.47
2019-04-26T06:27:49.185Z,66.00
2019-04-26T06:28:49.161Z,66.19
2019-04-26T06:29:49.144Z,66.47
2019-04-26T06:30:49.122Z,65.90
2019-04-26T06:31:49.115Z,66.03
2019-04-26T06:32:56.571Z,65.64
2019-04-26T06:33:49.078Z,65.07
2019-04-26T06:34:49.041Z,64.78
2019-04-26T06:35:49.063Z,63.73
2019-04-26T06:36:49.011Z,64.40
2019-04-26T06:37:48.987Z,63.93
2019-04-26T06:38:48.971Z,64.85
2019-04-26T06:39:48.949Z,65.33
2019-04-26T06:40:48.929Z,65.80
2019-04-26T06:41:48.906Z,66.95
2019-04-26T06:42:48.890Z,66.47
2019-04-26T06:43:48.874Z,66.56
2019-04-26T06:44:48.895Z,66.00
2019-04-26T06:45:48.829Z,66.50
2019-04-26T06:46:48.810Z,65.74
2019-04-26T06:47:48.814Z,65.26
2019-04-26T06:48:48.779Z,64.69
2019-04-26T06:49:48.758Z,64.31
2019-04-26T06:50:48.737Z,64.50
2019-04-26T06:51:48.719Z,64.47
2019-04-26T06:52:48.701Z,64.56
2019-04-26T06:53:48.679Z,65.04
2019-04-26T06:54:48.660Z,65.52
2019-04-26T06:55:48.655Z,65.04
2019-04-26T06:56:48.621Z,64.37
2019-04-26T06:57:48.601Z,63.89
2019-04-26T06:58:48.581Z,64.12
2019-04-26T06:59:48.556Z,63.70
2019-04-26T07:00:48.549Z,64.56
2019-04-26T07:01:48.525Z,64.75
2019-04-26T07:02:48.504Z,65.23
2019-04-26T07:03:48.489Z,65.52
2019-04-26T07:04:48.468Z,65.42
2019-04-26T07:05:48.446Z,65.90
2019-04-26T07:06:48.424Z,65.71
2019-04-26T07:07:48.412Z,66.09
2019-04-26T07:08:57.249Z,66.19
2019-04-26T07:09:48.375Z,66.56
2019-04-26T07:10:48.387Z,66.63
2019-04-26T07:11:48.329Z,67.58
2019-04-26T07:12:48.312Z,67.40
2019-04-26T07:13:48.282Z,67.87
2019-04-26T07:14:48.262Z,67.97
2019-04-26T07:15:48.277Z,68.16
2019-04-26T07:16:48.229Z,67.97
2019-04-26T07:17:48.240Z,67.77
2019-04-26T07:18:48.190Z,68.16
2019-04-26T07:19:48.169Z,68.06
2019-04-26T07:20:48.207Z,67.43
2019-04-26T07:21:48.149Z,66.09
2019-04-26T07:22:48.102Z,65.61
2019-04-26T07:23:48.087Z,65.61
2019-04-26T07:24:48.068Z,65.61
2019-04-26T07:25:48.071Z,65.61
2019-04-26T07:26:48.025Z,66.19
2019-04-26T07:27:48.058Z,66.47
2019-04-26T07:28:47.989Z,66.47
2019-04-26T07:29:47.967Z,66.25
2019-04-26T07:30:47.953Z,66.53
2019-04-26T07:31:47.934Z,66.53
2019-04-26T07:32:47.913Z,66.35
2019-04-26T07:33:47.894Z,66.35
2019-04-26T07:34:47.881Z,65.96
2019-04-26T07:35:47.849Z,66.66
2019-04-26T07:36:47.827Z,65.90
2019-04-26T07:37:47.809Z,65.42
2019-04-26T07:38:47.796Z,65.14
2019-04-26T07:39:47.780Z,64.85
2019-04-26T07:40:47.756Z,64.28
2019-04-26T07:41:47.731Z,64.18
2019-04-26T07:42:47.722Z,65.20
2019-04-26T07:43:47.696Z,65.14
2019-04-26T07:44:47.675Z,64.65
2019-04-26T07:45:47.652Z,65.04
2019-04-26T07:46:47.633Z,64.65
2019-04-26T07:47:47.614Z,64.75
2019-04-26T07:48:47.601Z,64.62
2019-04-26T07:49:47.565Z,65.20
2019-04-26T07:50:47.551Z,65.67
2019-04-26T07:51:47.532Z,65.30
2019-04-26T07:52:47.509Z,65.39
2019-04-26T07:53:47.492Z,65.55
2019-04-26T07:54:47.472Z,65.64
2019-04-26T07:55:47.448Z,66.50
2019-04-26T07:56:47.451Z,65.93
2019-04-26T07:57:47.424Z,66.22
2019-04-26T07:58:47.395Z,66.35
2019-04-26T07:59:47.368Z,66.35
2019-04-26T08:00:47.346Z,66.35
2019-04-26T08:01:47.330Z,65.96
2019-04-26T08:02:47.309Z,65.48
2019-04-26T08:03:47.295Z,65.48
2019-04-26T08:04:47.281Z,65.20
2019-04-26T08:05:47.245Z,65.39
2019-04-26T08:06:47.228Z,65.58
2019-04-26T08:07:47.216Z,65.96
2019-04-26T08:08:47.189Z,65.30
2019-04-26T08:09:59.214Z,65.67
2019-04-26T08:10:47.150Z,65.87
2019-04-26T08:11:47.123Z,66.35
2019-04-26T08:12:47.112Z,65.77
2019-04-26T08:13:47.090Z,66.25
2019-04-26T08:14:47.065Z,66.41
2019-04-26T08:15:47.046Z,66.44
2019-04-26T08:16:47.032Z,66.02
2019-04-26T08:17:47.009Z,66.98
2019-04-26T08:18:46.990Z,66.69
2019-04-26T08:19:46.965Z,67.17
2019-04-26T08:20:48.292Z,67.55
2019-04-26T08:21:48.202Z,66.98
2019-04-26T08:22:46.911Z,67.93
2019-04-26T08:23:46.884Z,68.03
2019-04-26T08:24:46.865Z,67.83
2019-04-26T08:25:46.845Z,67.55
2019-04-26T08:26:46.827Z,67.83
2019-04-26T08:27:47.074Z,68.12
2019-04-26T08:28:46.793Z,68.22
2019-04-26T08:29:46.766Z,68.12
2019-04-26T08:30:46.747Z,67.36
2019-04-26T08:31:46.724Z,67.83
2019-04-26T08:32:46.814Z,68.70
2019-04-26T08:33:48.791Z,68.70
2019-04-26T08:34:46.665Z,68.32
2019-04-26T08:35:48.948Z,68.41
2019-04-26T08:36:46.625Z,68.03
2019-04-26T08:37:46.602Z,68.32
2019-04-26T08:38:48.838Z,68.98
2019-04-26T08:39:51.692Z,69.08
2019-04-26T08:40:46.551Z,69.37
2019-04-26T08:41:46.527Z,69.56
2019-04-26T08:42:46.515Z,70.09
2019-04-26T08:43:46.483Z,69.65
2019-04-26T08:44:46.469Z,70.28
2019-04-26T08:46:01.747Z,70.57
2019-04-26T08:46:46.441Z,71.23
2019-04-26T08:47:50.048Z,70.86
2019-04-26T08:48:46.389Z,70.95
2019-04-26T08:49:47.270Z,71.23
2019-04-26T08:50:47.053Z,71.23
2019-04-26T08:51:46.320Z,71.91
2019-04-26T08:52:46.333Z,71.91
2019-04-26T08:53:46.275Z,72.28
2019-04-26T08:54:46.260Z,72.28
2019-04-26T08:55:46.234Z,72.38
2019-04-26T08:56:46.214Z,72.86
2019-04-26T08:57:46.210Z,72.67
2019-04-26T08:58:46.182Z,73.05
2019-04-26T08:59:46.155Z,73.05
2019-04-26T09:00:46.133Z,73.05
2019-04-26T09:01:46.613Z,72.86
2019-04-26T09:02:46.092Z,72.76
2019-04-26T09:03:46.065Z,73.05
2019-04-26T09:04:46.053Z,72.67
2019-04-26T09:05:49.809Z,72.96
2019-04-26T09:06:46.009Z,72.76
2019-04-26T09:07:45.986Z,72.86
2019-04-26T09:08:45.970Z,72.57
2019-04-26T09:09:56.737Z,72.86
2019-04-26T09:10:45.924Z,72.86
2019-04-26T09:11:45.904Z,72.86
2019-04-26T09:12:45.885Z,73.14
2019-04-26T09:13:45.864Z,72.67
2019-04-26T09:14:45.843Z,73.62
2019-04-26T09:15:45.825Z,73.43
2019-04-26T09:16:50.513Z,73.43
2019-04-26T09:17:45.796Z,73.72
2019-04-26T09:18:52.942Z,73.81
2019-04-26T09:19:45.735Z,73.24
2019-04-26T09:20:45.723Z,73.52
2019-04-26T09:21:47.420Z,74.29
2019-04-26T09:22:45.684Z,74.48
2019-04-26T09:23:50.819Z,74.01
2019-04-26T09:24:45.638Z,74.48
2019-04-26T09:25:45.616Z,74.38
2019-04-26T09:26:46.620Z,75.24
2019-04-26T09:27:45.573Z,77.62
2019-04-26T09:28:45.546Z,77.72
2019-04-26T09:29:45.529Z,77.72
2019-04-26T09:30:47.696Z,78.01
2019-04-26T09:31:45.489Z,77.53
2019-04-26T09:32:45.469Z,77.87
2019-04-26T09:33:45.452Z,78.16
2019-04-26T09:34:45.425Z,78.20
2019-04-26T09:35:45.403Z,78.49
2019-04-26T09:36:45.388Z,78.16
2019-04-26T09:37:45.371Z,78.92
2019-04-26T09:38:45.340Z,78.54
2019-04-26T09:39:45.322Z,77.87
2019-04-26T09:40:45.301Z,77.72
2019-04-26T09:41:45.324Z,76.96
2019-04-26T09:42:45.256Z,76.77
2019-04-26T09:43:45.237Z,76.86
2019-04-26T09:44:45.217Z,77.15
2019-04-26T09:45:47.931Z,76.48
2019-04-26T09:46:48.514Z,77.25
2019-04-26T09:47:45.154Z,78.10
2019-04-26T09:48:45.133Z,78.10
2019-04-26T09:49:45.108Z,77.44
2019-04-26T09:50:45.088Z,77.91
2019-04-26T09:51:45.072Z,78.10
2019-04-26T09:52:45.049Z,77.53
2019-04-26T09:53:45.029Z,78.67
2019-04-26T09:54:45.009Z,77.91
2019-04-26T09:55:44.987Z,78.01
2019-04-26T09:56:44.974Z,77.25
2019-04-26T09:57:44.947Z,77.28
2019-04-26T09:58:44.925Z,76.14
2019-04-26T09:59:44.909Z,75.66
2019-04-26T10:00:48.501Z,76.14
2019-04-26T10:01:44.860Z,75.66
2019-04-26T10:02:44.842Z,76.04
2019-04-26T10:03:44.821Z,76.04
2019-04-26T10:04:44.799Z,74.84
2019-04-26T10:05:44.784Z,74.55
2019-04-26T10:06:44.766Z,74.80
2019-04-26T10:07:44.757Z,76.14
2019-04-26T10:08:47.066Z,75.85
2019-04-26T10:09:44.699Z,75.66
2019-04-26T10:10:44.716Z,75.43
2019-04-26T10:11:44.659Z,75.76
2019-04-26T10:12:44.641Z,74.99
2019-04-26T10:13:44.621Z,74.80
2019-04-26T10:14:46.484Z,75.05
2019-04-26T10:15:44.582Z,74.57
2019-04-26T10:16:44.565Z,74.52
2019-04-26T10:17:46.443Z,74.90
2019-04-26T10:18:44.519Z,74.23
2019-04-26T10:19:44.547Z,73.66
2019-04-26T10:20:44.479Z,73.66
2019-04-26T10:21:44.460Z,73.66
2019-04-26T10:22:44.439Z,72.80
2019-04-26T10:23:44.419Z,73.85
2019-04-26T10:24:44.409Z,73.56
2019-04-26T10:25:47.323Z,72.71
2019-04-26T10:26:44.357Z,73.75
2019-04-26T10:27:44.337Z,73.28
2019-04-26T10:28:46.703Z,72.89
2019-04-26T10:29:44.295Z,73.08
2019-04-26T10:30:44.273Z,72.61
2019-04-26T10:31:47.632Z,72.89
2019-04-26T10:32:44.255Z,73.08
2019-04-26T10:33:44.208Z,72.89
2019-04-26T10:34:47.498Z,72.99
2019-04-26T10:35:44.171Z,73.18
2019-04-26T10:36:44.151Z,73.47
2019-04-26T10:37:47.971Z,72.71
2019-04-26T10:38:44.118Z,73.72
2019-04-26T10:39:44.088Z,74.32
2019-04-26T10:40:44.081Z,72.80
2019-04-26T10:41:44.046Z,73.47
2019-04-26T10:42:44.031Z,72.42
2019-04-26T10:43:44.059Z,72.71
2019-04-26T10:44:43.988Z,72.99
2019-04-26T10:45:45.897Z,72.99
2019-04-26T10:46:55.070Z,72.89
2019-04-26T10:47:43.920Z,72.71
2019-04-26T10:48:45.496Z,72.38
2019-04-26T10:49:43.884Z,73.05
2019-04-26T10:50:43.859Z,72.76
2019-04-26T10:51:43.842Z,73.81
2019-04-26T10:52:49.449Z,72.96
2019-04-26T10:53:43.799Z,73.62
2019-04-26T10:54:46.011Z,73.52
2019-04-26T10:55:46.543Z,73.52
2019-04-26T10:56:43.738Z,73.62
2019-04-26T10:57:43.718Z,74.01
2019-04-26T10:58:43.726Z,73.62
2019-04-26T10:59:44.073Z,73.52
2019-04-26T11:00:43.657Z,72.57
2019-04-26T11:01:43.634Z,73.05
2019-04-26T11:02:43.610Z,73.05
2019-04-26T11:03:43.595Z,74.29
2019-04-26T11:04:43.568Z,75.43
2019-04-26T11:05:43.551Z,75.78
2019-04-26T11:06:43.532Z,76.82
2019-04-26T11:07:43.509Z,77.01
2019-04-26T11:08:43.491Z,77.87
2019-04-26T11:09:43.466Z,77.49
2019-04-26T11:10:48.933Z,78.06
2019-04-26T11:11:43.425Z,78.44
2019-04-26T11:12:44.756Z,78.64
2019-04-26T11:13:43.392Z,78.25
2019-04-26T11:14:43.367Z,78.35
2019-04-26T11:15:43.339Z,78.06
2019-04-26T11:16:43.313Z,78.25
2019-04-26T11:17:46.051Z,77.69
2019-04-26T11:18:43.274Z,78.06
2019-04-26T11:19:44.239Z,78.44
2019-04-26T11:20:45.630Z,78.73
2019-04-26T11:21:43.212Z,79.46
2019-04-26T11:22:43.184Z,79.55
2019-04-26T11:23:45.458Z,78.88
2019-04-26T11:24:43.142Z,79.93
2019-04-26T11:25:43.118Z,79.83
2019-04-26T11:26:43.118Z,79.93
2019-04-26T11:27:44.291Z,79.93
2019-04-26T11:28:43.057Z,80.31
2019-04-26T11:29:53.266Z,80.22
2019-04-26T11:30:43.008Z,80.22
2019-04-26T11:31:43.012Z,80.31
2019-04-26T11:32:42.969Z,79.93
2019-04-26T11:33:44.857Z,79.27
2019-04-26T11:34:43.074Z,78.88
2019-04-26T11:35:42.897Z,78.98
2019-04-26T11:36:43.082Z,79.17
2019-04-26T11:37:42.859Z,79.27
2019-04-26T11:38:42.855Z,80.12
2019-04-26T11:39:42.827Z,79.78
2019-04-26T11:40:44.302Z,81.12
2019-04-26T11:41:42.771Z,80.92
2019-04-26T11:42:45.755Z,80.16
2019-04-26T11:43:42.741Z,78.54
2019-04-26T11:44:44.444Z,78.44
2019-04-26T11:45:45.430Z,79.40
2019-04-26T11:46:45.045Z,78.73
2019-04-26T11:47:54.264Z,78.98
2019-04-26T11:48:42.613Z,79.97
2019-04-26T11:49:43.023Z,80.31
2019-04-26T11:50:42.566Z,80.83
2019-04-26T11:51:42.544Z,80.07
2019-04-26T11:52:42.523Z,79.07
2019-04-26T11:53:44.713Z,80.02
2019-04-26T11:54:42.476Z,80.98
2019-04-26T11:55:42.455Z,80.88
2019-04-26T11:56:42.431Z,81.17
2019-04-26T11:57:43.722Z,81.74
2019-04-26T11:58:42.390Z,81.07
2019-04-26T11:59:42.373Z,79.93
2019-04-26T12:00:42.343Z,79.74
2019-04-26T12:01:42.325Z,80.79
2019-04-26T12:02:42.306Z,81.17
2019-04-26T12:03:42.278Z,81.93
2019-04-26T12:04:42.255Z,80.98
2019-04-26T12:05:42.233Z,80.88
2019-04-26T12:06:42.208Z,80.69
2019-04-26T12:07:42.181Z,80.31
2019-04-26T12:08:42.169Z,81.26
2019-04-26T12:09:42.143Z,81.65
2019-04-26T12:10:44.466Z,81.36
2019-04-26T12:11:49.413Z,81.46
2019-04-26T12:12:43.176Z,80.98
2019-04-26T12:13:42.053Z,81.46
2019-04-26T12:14:42.036Z,81.07
2019-04-26T12:15:43.881Z,81.36
2019-04-26T12:16:49.452Z,82.60
2019-04-26T12:17:41.962Z,82.03
2019-04-26T12:18:44.146Z,81.46
2019-04-26T12:19:41.917Z,81.55
2019-04-26T12:20:41.892Z,81.46
2019-04-26T12:21:41.872Z,81.07
2019-04-26T12:22:43.321Z,80.98
2019-04-26T12:23:41.826Z,80.69
2019-04-26T12:24:41.805Z,82.03
2019-04-26T12:25:43.634Z,81.07
2019-04-26T12:26:43.007Z,81.74
2019-04-26T12:27:41.766Z,82.79
2019-04-26T12:28:41.730Z,81.93
2019-04-26T12:29:44.178Z,81.55
2019-04-26T12:30:41.670Z,80.98
2019-04-26T12:31:41.648Z,81.65
2019-04-26T12:32:41.626Z,82.50
2019-04-26T12:33:43.731Z,83.17
2019-04-26T12:34:41.581Z,84.12
2019-04-26T12:35:41.556Z,84.88
2019-04-26T12:36:41.535Z,84.60
2019-04-26T12:37:41.507Z,83.93
2019-04-26T12:38:41.487Z,84.75
2019-04-26T12:39:41.468Z,84.27
2019-04-26T12:40:42.466Z,84.36
2019-04-26T12:41:41.431Z,85.60
2019-04-26T12:42:43.446Z,85.64
2019-04-26T12:43:41.381Z,84.65
2019-04-26T12:44:41.355Z,85.13
2019-04-26T12:45:41.326Z,84.94
2019-04-26T12:46:41.302Z,84.22
2019-04-26T12:47:41.287Z,84.88
2019-04-26T12:48:41.271Z,85.36
2019-04-26T12:49:41.241Z,86.03
2019-04-26T12:50:41.221Z,84.12
2019-04-26T12:51:42.820Z,84.03
2019-04-26T12:52:41.176Z,84.22
2019-04-26T12:53:41.143Z,84.79
2019-04-26T12:54:42.975Z,85.27
2019-04-26T12:55:41.108Z,85.27
2019-04-26T12:56:41.082Z,84.12
2019-04-26T12:57:42.383Z,83.89
2019-04-26T12:58:41.047Z,84.08
2019-04-26T12:59:44.258Z,83.70
2019-04-26T13:00:53.177Z,83.89